ESSP

Norrköping Airport

Norrköping, Sweden
METAR ESSP 140050Z AUTO 03007KT 9999 OVC009/// M00/M01 Q1033
Observed Flight Rules
Dec-14 @ 00:50 UTC (36 minutes ago) Instrument Flight Rules
Wind Visibility Clouds
30° at 7 knots 10,000+ meters
  • Overcast at 900' AGL
Temperatures Readings
Current 0°C / 32°F
Dewpoint -1°C / 30°F
Humidity 93%
Altimeter 30.5" Hg
Pressure 1033 hPa
Elevation 8
METAR ESSP 140050Z AUTO 03007KT 9999 OVC009/// M00/M01 Q1033
Observed Flight Rules
Dec-14 @ 00:50 UTC
(36 minutes ago)
IFR
Wind Visibility
30° at 7 knots 10,000+ meters
Clouds
  • Overcast at 900' AGL
Temperature Dewpoint
0°C / 32°F -1°C / 30°F
Humidity Altimeter Pressure
93% 30.5" Hg 1033 hPa